GCTS

Tenerife South Airport

Tenerife Island, Spain
METAR GCTS 140730Z 04006KT 9999 FEW030 18/12 Q1026 NOSIG
Observed Flight Rules
Dec-14 @ 07:30 UTC (41 minutes ago) Visual Flight Rules
Wind Visibility Clouds
40° at 6 knots 10,000+ meters
  • Few at 3,000' AGL
Temperatures Readings
Current 18°C / 64°F
Dewpoint 12°C / 54°F
Humidity 68%
Altimeter 30.3" Hg
Pressure 1026 hPa
Elevation 72
METAR GCTS 140730Z 04006KT 9999 FEW030 18/12 Q1026 NOSIG
Observed Flight Rules
Dec-14 @ 07:30 UTC
(41 minutes ago)
VFR
Wind Visibility
40° at 6 knots 10,000+ meters
Clouds
  • Few at 3,000' AGL
Temperature Dewpoint
18°C / 64°F 12°C / 54°F
Humidity Altimeter Pressure
68% 30.3" Hg 1026 hPa